<?xml version="1.0" encoding="UTF-8" standalone="no" ?>
<gpx xmlns="http://www.topografix.com/GPX/1/1" xmlns:xsi="http://www.w3.org/2001/XMLSchema-instance" xsi:schemaLocation="http://www.topografix.com/GPX/1/1 http://www.topografix.com/GPX/1/1/gpx.xsd" version="1.1" creator="VisuGPX - https://www.visugpx.com">
  <metadata>
    <name>Rando : La Grande Cascade</name>
  </metadata>
  <trk>
    <name><![CDATA[La Grande Cascade]]></name>
    <trkseg>
      <trkpt lat="45.56971" lon="2.81556">
        <ele>1163.8000488281</ele>
        <time>2013-08-16T14:35:30.000Z</time>
      </trkpt>
      <trkpt lat="45.56967" lon="2.81564">
        <ele>1167.1999511719</ele>
        <time>2013-08-16T14:35:43.000Z</time>
      </trkpt>
      <trkpt lat="45.5696" lon="2.81572">
        <ele>1170.8000488281</ele>
        <time>2013-08-16T14:35:59.000Z</time>
      </trkpt>
      <trkpt lat="45.56959" lon="2.81576">
        <ele>1173</ele>
        <time>2013-08-16T14:36:14.000Z</time>
      </trkpt>
      <trkpt lat="45.56953" lon="2.81577">
        <ele>1172.8000488281</ele>
        <time>2013-08-16T14:36:25.000Z</time>
      </trkpt>
      <trkpt lat="45.56949" lon="2.81579">
        <ele>1173</ele>
        <time>2013-08-16T14:36:38.000Z</time>
      </trkpt>
      <trkpt lat="45.56937" lon="2.81594">
        <ele>1177</ele>
        <time>2013-08-16T14:36:53.000Z</time>
      </trkpt>
      <trkpt lat="45.56924" lon="2.81605">
        <ele>1179.4000244141</ele>
        <time>2013-08-16T14:37:07.000Z</time>
      </trkpt>
      <trkpt lat="45.56922" lon="2.81606">
        <ele>1179.4000244141</ele>
        <time>2013-08-16T14:37:10.000Z</time>
      </trkpt>
      <trkpt lat="45.5691" lon="2.81619">
        <ele>1183.1999511719</ele>
        <time>2013-08-16T14:37:24.000Z</time>
      </trkpt>
      <trkpt lat="45.56905" lon="2.81629">
        <ele>1186.5999755859</ele>
        <time>2013-08-16T14:37:37.000Z</time>
      </trkpt>
      <trkpt lat="45.56902" lon="2.81638">
        <ele>1190</ele>
        <time>2013-08-16T14:37:48.000Z</time>
      </trkpt>
      <trkpt lat="45.56895" lon="2.81647">
        <ele>1192.5999755859</ele>
        <time>2013-08-16T14:37:59.000Z</time>
      </trkpt>
      <trkpt lat="45.56892" lon="2.81652">
        <ele>1194.5999755859</ele>
        <time>2013-08-16T14:38:10.000Z</time>
      </trkpt>
      <trkpt lat="45.56891" lon="2.81658">
        <ele>1196.5999755859</ele>
        <time>2013-08-16T14:38:23.000Z</time>
      </trkpt>
      <trkpt lat="45.56874" lon="2.81669">
        <ele>1198.8000488281</ele>
        <time>2013-08-16T14:38:36.000Z</time>
      </trkpt>
      <trkpt lat="45.56866" lon="2.81678">
        <ele>1202.5999755859</ele>
        <time>2013-08-16T14:38:49.000Z</time>
      </trkpt>
      <trkpt lat="45.56857" lon="2.81692">
        <ele>1209.4000244141</ele>
        <time>2013-08-16T14:39:03.000Z</time>
      </trkpt>
      <trkpt lat="45.56852" lon="2.81705">
        <ele>1216.5999755859</ele>
        <time>2013-08-16T14:39:16.000Z</time>
      </trkpt>
      <trkpt lat="45.56849" lon="2.81714">
        <ele>1221.1999511719</ele>
        <time>2013-08-16T14:39:27.000Z</time>
      </trkpt>
      <trkpt lat="45.56842" lon="2.81725">
        <ele>1225.4000244141</ele>
        <time>2013-08-16T14:39:42.000Z</time>
      </trkpt>
      <trkpt lat="45.56833" lon="2.81729">
        <ele>1225</ele>
        <time>2013-08-16T14:39:49.000Z</time>
      </trkpt>
      <trkpt lat="45.56834" lon="2.81731">
        <ele>1226</ele>
        <time>2013-08-16T14:40:00.000Z</time>
      </trkpt>
      <trkpt lat="45.56821" lon="2.81734">
        <ele>1224.1999511719</ele>
        <time>2013-08-16T14:40:12.000Z</time>
      </trkpt>
      <trkpt lat="45.56829" lon="2.81747">
        <ele>1232.4000244141</ele>
        <time>2013-08-16T14:40:27.000Z</time>
      </trkpt>
      <trkpt lat="45.56835" lon="2.81757">
        <ele>1238.5999755859</ele>
        <time>2013-08-16T14:40:39.000Z</time>
      </trkpt>
      <trkpt lat="45.56837" lon="2.81769">
        <ele>1244.8000488281</ele>
        <time>2013-08-16T14:40:53.000Z</time>
      </trkpt>
      <trkpt lat="45.56833" lon="2.8178">
        <ele>1248.1999511719</ele>
        <time>2013-08-16T14:41:07.000Z</time>
      </trkpt>
      <trkpt lat="45.5683" lon="2.81789">
        <ele>1251.5999755859</ele>
        <time>2013-08-16T14:41:22.000Z</time>
      </trkpt>
      <trkpt lat="45.56817" lon="2.81794">
        <ele>1250.4000244141</ele>
        <time>2013-08-16T14:41:39.000Z</time>
      </trkpt>
      <trkpt lat="45.56815" lon="2.81794">
        <ele>1250.4000244141</ele>
        <time>2013-08-16T14:41:40.000Z</time>
      </trkpt>
      <trkpt lat="45.56785" lon="2.81807">
        <ele>1246.8000488281</ele>
        <time>2013-08-16T14:41:56.000Z</time>
      </trkpt>
      <trkpt lat="45.56767" lon="2.81814">
        <ele>1243.8000488281</ele>
        <time>2013-08-16T14:42:07.000Z</time>
      </trkpt>
      <trkpt lat="45.5676" lon="2.81817">
        <ele>1243</ele>
        <time>2013-08-16T14:42:20.000Z</time>
      </trkpt>
      <trkpt lat="45.56748" lon="2.81829">
        <ele>1244.5999755859</ele>
        <time>2013-08-16T14:42:31.000Z</time>
      </trkpt>
      <trkpt lat="45.56729" lon="2.81838">
        <ele>1242.5999755859</ele>
        <time>2013-08-16T14:42:46.000Z</time>
      </trkpt>
      <trkpt lat="45.56719" lon="2.81844">
        <ele>1242.1999511719</ele>
        <time>2013-08-16T14:42:54.000Z</time>
      </trkpt>
      <trkpt lat="45.56712" lon="2.81853">
        <ele>1247</ele>
        <time>2013-08-16T14:43:06.000Z</time>
      </trkpt>
      <trkpt lat="45.56713" lon="2.81856">
        <ele>1248.1999511719</ele>
        <time>2013-08-16T14:43:20.000Z</time>
      </trkpt>
      <trkpt lat="45.5672" lon="2.81849">
        <ele>1244.4000244141</ele>
        <time>2013-08-16T14:43:38.000Z</time>
      </trkpt>
      <trkpt lat="45.56718" lon="2.81847">
        <ele>1243.5999755859</ele>
        <time>2013-08-16T14:43:44.000Z</time>
      </trkpt>
      <trkpt lat="45.56733" lon="2.81844">
        <ele>1246.4000244141</ele>
        <time>2013-08-16T14:43:55.000Z</time>
      </trkpt>
      <trkpt lat="45.56742" lon="2.81843">
        <ele>1249</ele>
        <time>2013-08-16T14:44:06.000Z</time>
      </trkpt>
      <trkpt lat="45.56743" lon="2.81851">
        <ele>1252.4000244141</ele>
        <time>2013-08-16T14:44:21.000Z</time>
      </trkpt>
      <trkpt lat="45.56738" lon="2.81853">
        <ele>1251.5999755859</ele>
        <time>2013-08-16T14:44:25.000Z</time>
      </trkpt>
      <trkpt lat="45.56732" lon="2.8186">
        <ele>1253.1999511719</ele>
        <time>2013-08-16T14:44:36.000Z</time>
      </trkpt>
      <trkpt lat="45.56729" lon="2.81862">
        <ele>1253.4000244141</ele>
        <time>2013-08-16T14:44:48.000Z</time>
      </trkpt>
      <trkpt lat="45.56728" lon="2.81861">
        <ele>1253</ele>
        <time>2013-08-16T14:44:49.000Z</time>
      </trkpt>
      <trkpt lat="45.56726" lon="2.81861">
        <ele>1252.5999755859</ele>
        <time>2013-08-16T14:44:51.000Z</time>
      </trkpt>
      <trkpt lat="45.56731" lon="2.8186">
        <ele>1253.1999511719</ele>
        <time>2013-08-16T14:45:07.000Z</time>
      </trkpt>
      <trkpt lat="45.56732" lon="2.81852">
        <ele>1249.5999755859</ele>
        <time>2013-08-16T14:45:24.000Z</time>
      </trkpt>
      <trkpt lat="45.56744" lon="2.81852">
        <ele>1253.4000244141</ele>
        <time>2013-08-16T14:45:40.000Z</time>
      </trkpt>
      <trkpt lat="45.56747" lon="2.81862">
        <ele>1258.4000244141</ele>
        <time>2013-08-16T14:46:05.000Z</time>
      </trkpt>
      <trkpt lat="45.56754" lon="2.81863">
        <ele>1261</ele>
        <time>2013-08-16T14:46:11.000Z</time>
      </trkpt>
      <trkpt lat="45.56757" lon="2.81867">
        <ele>1263.8000488281</ele>
        <time>2013-08-16T14:46:23.000Z</time>
      </trkpt>
      <trkpt lat="45.56751" lon="2.81872">
        <ele>1264.1999511719</ele>
        <time>2013-08-16T14:46:45.000Z</time>
      </trkpt>
      <trkpt lat="45.56749" lon="2.81871">
        <ele>1263.1999511719</ele>
        <time>2013-08-16T14:47:02.000Z</time>
      </trkpt>
      <trkpt lat="45.56748" lon="2.81873">
        <ele>1264</ele>
        <time>2013-08-16T14:47:09.000Z</time>
      </trkpt>
      <trkpt lat="45.56715" lon="2.81874">
        <ele>1257.1999511719</ele>
        <time>2013-08-16T14:47:26.000Z</time>
      </trkpt>
      <trkpt lat="45.5671" lon="2.81874">
        <ele>1257.5999755859</ele>
        <time>2013-08-16T14:47:46.000Z</time>
      </trkpt>
      <trkpt lat="45.56708" lon="2.81875">
        <ele>1258.4000244141</ele>
        <time>2013-08-16T14:48:23.000Z</time>
      </trkpt>
      <trkpt lat="45.56707" lon="2.81875">
        <ele>1258.1999511719</ele>
        <time>2013-08-16T14:48:59.000Z</time>
      </trkpt>
      <trkpt lat="45.56705" lon="2.81874">
        <ele>1258.4000244141</ele>
        <time>2013-08-16T14:49:25.000Z</time>
      </trkpt>
      <trkpt lat="45.56707" lon="2.81874">
        <ele>1258</ele>
        <time>2013-08-16T14:49:51.000Z</time>
      </trkpt>
      <trkpt lat="45.56707" lon="2.81878">
        <ele>1260.1999511719</ele>
        <time>2013-08-16T14:50:14.000Z</time>
      </trkpt>
      <trkpt lat="45.5671" lon="2.81879">
        <ele>1259.8000488281</ele>
        <time>2013-08-16T14:50:50.000Z</time>
      </trkpt>
      <trkpt lat="45.56706" lon="2.81879">
        <ele>1260.5999755859</ele>
        <time>2013-08-16T14:51:21.000Z</time>
      </trkpt>
      <trkpt lat="45.56708" lon="2.81877">
        <ele>1259.5999755859</ele>
        <time>2013-08-16T14:51:49.000Z</time>
      </trkpt>
      <trkpt lat="45.56706" lon="2.81878">
        <ele>1260</ele>
        <time>2013-08-16T14:52:22.000Z</time>
      </trkpt>
      <trkpt lat="45.56704" lon="2.81879">
        <ele>1260.5999755859</ele>
        <time>2013-08-16T14:52:52.000Z</time>
      </trkpt>
      <trkpt lat="45.567" lon="2.81879">
        <ele>1261.4000244141</ele>
        <time>2013-08-16T14:53:30.000Z</time>
      </trkpt>
      <trkpt lat="45.56699" lon="2.81879">
        <ele>1261.4000244141</ele>
        <time>2013-08-16T14:54:07.000Z</time>
      </trkpt>
      <trkpt lat="45.56702" lon="2.81878">
        <ele>1260.8000488281</ele>
        <time>2013-08-16T14:54:46.000Z</time>
      </trkpt>
      <trkpt lat="45.56701" lon="2.81876">
        <ele>1259.5999755859</ele>
        <time>2013-08-16T14:55:28.000Z</time>
      </trkpt>
      <trkpt lat="45.56701" lon="2.81876">
        <ele>1259.4000244141</ele>
        <time>2013-08-16T14:55:31.000Z</time>
      </trkpt>
      <trkpt lat="45.56694" lon="2.81874">
        <ele>1259.4000244141</ele>
        <time>2013-08-16T14:55:45.000Z</time>
      </trkpt>
      <trkpt lat="45.56691" lon="2.81877">
        <ele>1261.1999511719</ele>
        <time>2013-08-16T14:55:59.000Z</time>
      </trkpt>
      <trkpt lat="45.5669" lon="2.81879">
        <ele>1262.4000244141</ele>
        <time>2013-08-16T14:56:16.000Z</time>
      </trkpt>
      <trkpt lat="45.56683" lon="2.81874">
        <ele>1260.8000488281</ele>
        <time>2013-08-16T14:56:26.000Z</time>
      </trkpt>
      <trkpt lat="45.56688" lon="2.81875">
        <ele>1260.5999755859</ele>
        <time>2013-08-16T14:56:39.000Z</time>
      </trkpt>
      <trkpt lat="45.56687" lon="2.81884">
        <ele>1265</ele>
        <time>2013-08-16T14:56:50.000Z</time>
      </trkpt>
      <trkpt lat="45.56707" lon="2.81869">
        <ele>1255.1999511719</ele>
        <time>2013-08-16T14:57:05.000Z</time>
      </trkpt>
      <trkpt lat="45.56749" lon="2.81863">
        <ele>1259.8000488281</ele>
        <time>2013-08-16T14:57:20.000Z</time>
      </trkpt>
      <trkpt lat="45.56767" lon="2.81849">
        <ele>1260</ele>
        <time>2013-08-16T14:57:35.000Z</time>
      </trkpt>
      <trkpt lat="45.56779" lon="2.81848">
        <ele>1263.4000244141</ele>
        <time>2013-08-16T14:57:51.000Z</time>
      </trkpt>
      <trkpt lat="45.56793" lon="2.81835">
        <ele>1262.4000244141</ele>
        <time>2013-08-16T14:58:09.000Z</time>
      </trkpt>
      <trkpt lat="45.56787" lon="2.81846">
        <ele>1265</ele>
        <time>2013-08-16T14:58:24.000Z</time>
      </trkpt>
      <trkpt lat="45.56782" lon="2.81856">
        <ele>1267.8000488281</ele>
        <time>2013-08-16T14:58:37.000Z</time>
      </trkpt>
      <trkpt lat="45.5678" lon="2.81856">
        <ele>1267.4000244141</ele>
        <time>2013-08-16T14:58:51.000Z</time>
      </trkpt>
      <trkpt lat="45.56779" lon="2.81862">
        <ele>1269.4000244141</ele>
        <time>2013-08-16T14:58:58.000Z</time>
      </trkpt>
      <trkpt lat="45.56771" lon="2.81872">
        <ele>1270.5999755859</ele>
        <time>2013-08-16T14:59:07.000Z</time>
      </trkpt>
      <trkpt lat="45.56767" lon="2.81873">
        <ele>1270</ele>
        <time>2013-08-16T14:59:09.000Z</time>
      </trkpt>
      <trkpt lat="45.56747" lon="2.81883">
        <ele>1268.8000488281</ele>
        <time>2013-08-16T14:59:21.000Z</time>
      </trkpt>
      <trkpt lat="45.56744" lon="2.81888">
        <ele>1270.1999511719</ele>
        <time>2013-08-16T14:59:34.000Z</time>
      </trkpt>
      <trkpt lat="45.56731" lon="2.81897">
        <ele>1271.8000488281</ele>
        <time>2013-08-16T14:59:51.000Z</time>
      </trkpt>
      <trkpt lat="45.56727" lon="2.81904">
        <ele>1274.1999511719</ele>
        <time>2013-08-16T15:00:01.000Z</time>
      </trkpt>
      <trkpt lat="45.5672" lon="2.81917">
        <ele>1278.8000488281</ele>
        <time>2013-08-16T15:00:14.000Z</time>
      </trkpt>
      <trkpt lat="45.56717" lon="2.81923">
        <ele>1281.4000244141</ele>
        <time>2013-08-16T15:00:30.000Z</time>
      </trkpt>
      <trkpt lat="45.56712" lon="2.81927">
        <ele>1283.1999511719</ele>
        <time>2013-08-16T15:00:41.000Z</time>
      </trkpt>
      <trkpt lat="45.56703" lon="2.81938">
        <ele>1288.5999755859</ele>
        <time>2013-08-16T15:00:53.000Z</time>
      </trkpt>
      <trkpt lat="45.56689" lon="2.81944">
        <ele>1290.1999511719</ele>
        <time>2013-08-16T15:01:07.000Z</time>
      </trkpt>
      <trkpt lat="45.56677" lon="2.81937">
        <ele>1283.8000488281</ele>
        <time>2013-08-16T15:01:21.000Z</time>
      </trkpt>
      <trkpt lat="45.56671" lon="2.81939">
        <ele>1283.8000488281</ele>
        <time>2013-08-16T15:01:40.000Z</time>
      </trkpt>
      <trkpt lat="45.56648" lon="2.81946">
        <ele>1283</ele>
        <time>2013-08-16T15:01:52.000Z</time>
      </trkpt>
      <trkpt lat="45.56646" lon="2.81946">
        <ele>1282.8000488281</ele>
        <time>2013-08-16T15:01:54.000Z</time>
      </trkpt>
      <trkpt lat="45.56645" lon="2.81948">
        <ele>1283.4000244141</ele>
        <time>2013-08-16T15:01:57.000Z</time>
      </trkpt>
      <trkpt lat="45.56644" lon="2.81951">
        <ele>1284.5999755859</ele>
        <time>2013-08-16T15:02:04.000Z</time>
      </trkpt>
      <trkpt lat="45.56639" lon="2.8195">
        <ele>1282.5999755859</ele>
        <time>2013-08-16T15:02:15.000Z</time>
      </trkpt>
      <trkpt lat="45.56642" lon="2.8195">
        <ele>1283.4000244141</ele>
        <time>2013-08-16T15:02:27.000Z</time>
      </trkpt>
      <trkpt lat="45.56646" lon="2.81948">
        <ele>1284</ele>
        <time>2013-08-16T15:02:40.000Z</time>
      </trkpt>
      <trkpt lat="45.56647" lon="2.81946">
        <ele>1282.8000488281</ele>
        <time>2013-08-16T15:02:53.000Z</time>
      </trkpt>
      <trkpt lat="45.56644" lon="2.81946">
        <ele>1282.1999511719</ele>
        <time>2013-08-16T15:03:03.000Z</time>
      </trkpt>
      <trkpt lat="45.56642" lon="2.81948">
        <ele>1282.8000488281</ele>
        <time>2013-08-16T15:03:17.000Z</time>
      </trkpt>
      <trkpt lat="45.56638" lon="2.81949">
        <ele>1282</ele>
        <time>2013-08-16T15:03:30.000Z</time>
      </trkpt>
      <trkpt lat="45.56638" lon="2.8195">
        <ele>1282.1999511719</ele>
        <time>2013-08-16T15:03:44.000Z</time>
      </trkpt>
      <trkpt lat="45.56638" lon="2.81953">
        <ele>1283.8000488281</ele>
        <time>2013-08-16T15:03:58.000Z</time>
      </trkpt>
      <trkpt lat="45.5664" lon="2.81954">
        <ele>1285</ele>
        <time>2013-08-16T15:04:16.000Z</time>
      </trkpt>
      <trkpt lat="45.56634" lon="2.81952">
        <ele>1282.4000244141</ele>
        <time>2013-08-16T15:04:35.000Z</time>
      </trkpt>
      <trkpt lat="45.56632" lon="2.81951">
        <ele>1283.1999511719</ele>
        <time>2013-08-16T15:04:55.000Z</time>
      </trkpt>
      <trkpt lat="45.56631" lon="2.81951">
        <ele>1283.8000488281</ele>
        <time>2013-08-16T15:05:10.000Z</time>
      </trkpt>
      <trkpt lat="45.5663" lon="2.81949">
        <ele>1283.4000244141</ele>
        <time>2013-08-16T15:05:28.000Z</time>
      </trkpt>
      <trkpt lat="45.5663" lon="2.81949">
        <ele>1283.4000244141</ele>
        <time>2013-08-16T15:05:41.000Z</time>
      </trkpt>
      <trkpt lat="45.56631" lon="2.81951">
        <ele>1283.5999755859</ele>
        <time>2013-08-16T15:06:04.000Z</time>
      </trkpt>
      <trkpt lat="45.56629" lon="2.81951">
        <ele>1284.8000488281</ele>
        <time>2013-08-16T15:06:18.000Z</time>
      </trkpt>
      <trkpt lat="45.56628" lon="2.81951">
        <ele>1285.4000244141</ele>
        <time>2013-08-16T15:06:28.000Z</time>
      </trkpt>
      <trkpt lat="45.5663" lon="2.81953">
        <ele>1285</ele>
        <time>2013-08-16T15:06:49.000Z</time>
      </trkpt>
      <trkpt lat="45.56632" lon="2.81955">
        <ele>1285.1999511719</ele>
        <time>2013-08-16T15:07:12.000Z</time>
      </trkpt>
      <trkpt lat="45.56633" lon="2.81957">
        <ele>1285.8000488281</ele>
        <time>2013-08-16T15:07:35.000Z</time>
      </trkpt>
      <trkpt lat="45.56632" lon="2.81956">
        <ele>1285.8000488281</ele>
        <time>2013-08-16T15:07:53.000Z</time>
      </trkpt>
      <trkpt lat="45.56633" lon="2.81958">
        <ele>1286.5999755859</ele>
        <time>2013-08-16T15:08:11.000Z</time>
      </trkpt>
      <trkpt lat="45.56635" lon="2.81961">
        <ele>1287</ele>
        <time>2013-08-16T15:08:36.000Z</time>
      </trkpt>
      <trkpt lat="45.56636" lon="2.8196">
        <ele>1286.5999755859</ele>
        <time>2013-08-16T15:08:57.000Z</time>
      </trkpt>
      <trkpt lat="45.56636" lon="2.81961">
        <ele>1287.4000244141</ele>
        <time>2013-08-16T15:09:16.000Z</time>
      </trkpt>
      <trkpt lat="45.56635" lon="2.81961">
        <ele>1287.4000244141</ele>
        <time>2013-08-16T15:09:33.000Z</time>
      </trkpt>
      <trkpt lat="45.56634" lon="2.81958">
        <ele>1285.8000488281</ele>
        <time>2013-08-16T15:09:51.000Z</time>
      </trkpt>
      <trkpt lat="45.56634" lon="2.81957">
        <ele>1285.4000244141</ele>
        <time>2013-08-16T15:10:02.000Z</time>
      </trkpt>
      <trkpt lat="45.56648" lon="2.8198">
        <ele>1300.8000488281</ele>
        <time>2013-08-16T15:10:19.000Z</time>
      </trkpt>
      <trkpt lat="45.5664" lon="2.81965">
        <ele>1290.8000488281</ele>
        <time>2013-08-16T15:10:30.000Z</time>
      </trkpt>
      <trkpt lat="45.5663" lon="2.81959">
        <ele>1288.4000244141</ele>
        <time>2013-08-16T15:10:48.000Z</time>
      </trkpt>
      <trkpt lat="45.56643" lon="2.81979">
        <ele>1298.5999755859</ele>
        <time>2013-08-16T15:11:14.000Z</time>
      </trkpt>
      <trkpt lat="45.56641" lon="2.81977">
        <ele>1297.1999511719</ele>
        <time>2013-08-16T15:11:30.000Z</time>
      </trkpt>
      <trkpt lat="45.56629" lon="2.81954">
        <ele>1286.5999755859</ele>
        <time>2013-08-16T15:11:58.000Z</time>
      </trkpt>
      <trkpt lat="45.56628" lon="2.81958">
        <ele>1289</ele>
        <time>2013-08-16T15:12:13.000Z</time>
      </trkpt>
      <trkpt lat="45.56628" lon="2.81961">
        <ele>1290.4000244141</ele>
        <time>2013-08-16T15:12:30.000Z</time>
      </trkpt>
      <trkpt lat="45.56628" lon="2.81961">
        <ele>1290.5999755859</ele>
        <time>2013-08-16T15:12:41.000Z</time>
      </trkpt>
      <trkpt lat="45.56628" lon="2.81963">
        <ele>1291.4000244141</ele>
        <time>2013-08-16T15:12:53.000Z</time>
      </trkpt>
      <trkpt lat="45.56633" lon="2.81967">
        <ele>1290.8000488281</ele>
        <time>2013-08-16T15:13:09.000Z</time>
      </trkpt>
      <trkpt lat="45.56636" lon="2.81968">
        <ele>1291</ele>
        <time>2013-08-16T15:13:28.000Z</time>
      </trkpt>
      <trkpt lat="45.56656" lon="2.8198">
        <ele>1303</ele>
        <time>2013-08-16T15:13:39.000Z</time>
      </trkpt>
      <trkpt lat="45.56658" lon="2.8198">
        <ele>1303.5999755859</ele>
        <time>2013-08-16T15:13:40.000Z</time>
      </trkpt>
      <trkpt lat="45.56651" lon="2.81973">
        <ele>1297.5999755859</ele>
        <time>2013-08-16T15:13:52.000Z</time>
      </trkpt>
      <trkpt lat="45.56648" lon="2.81966">
        <ele>1293.5999755859</ele>
        <time>2013-08-16T15:14:03.000Z</time>
      </trkpt>
      <trkpt lat="45.5665" lon="2.81966">
        <ele>1294</ele>
        <time>2013-08-16T15:14:12.000Z</time>
      </trkpt>
      <trkpt lat="45.56649" lon="2.81968">
        <ele>1294.8000488281</ele>
        <time>2013-08-16T15:14:15.000Z</time>
      </trkpt>
      <trkpt lat="45.56633" lon="2.81992">
        <ele>1304.1999511719</ele>
        <time>2013-08-16T15:14:26.000Z</time>
      </trkpt>
      <trkpt lat="45.5663" lon="2.82006">
        <ele>1311.1999511719</ele>
        <time>2013-08-16T15:14:34.000Z</time>
      </trkpt>
      <trkpt lat="45.56626" lon="2.82008">
        <ele>1312.5999755859</ele>
        <time>2013-08-16T15:14:44.000Z</time>
      </trkpt>
      <trkpt lat="45.56624" lon="2.82007">
        <ele>1313</ele>
        <time>2013-08-16T15:14:52.000Z</time>
      </trkpt>
      <trkpt lat="45.56619" lon="2.82005">
        <ele>1313</ele>
        <time>2013-08-16T15:15:12.000Z</time>
      </trkpt>
      <trkpt lat="45.56617" lon="2.81995">
        <ele>1311.4000244141</ele>
        <time>2013-08-16T15:15:43.000Z</time>
      </trkpt>
      <trkpt lat="45.56616" lon="2.81997">
        <ele>1312</ele>
        <time>2013-08-16T15:15:54.000Z</time>
      </trkpt>
      <trkpt lat="45.56616" lon="2.81998">
        <ele>1312.4000244141</ele>
        <time>2013-08-16T15:16:02.000Z</time>
      </trkpt>
      <trkpt lat="45.56615" lon="2.8202">
        <ele>1319.4000244141</ele>
        <time>2013-08-16T15:16:29.000Z</time>
      </trkpt>
      <trkpt lat="45.5662" lon="2.82005">
        <ele>1312.8000488281</ele>
        <time>2013-08-16T15:17:02.000Z</time>
      </trkpt>
      <trkpt lat="45.56628" lon="2.81999">
        <ele>1310.1999511719</ele>
        <time>2013-08-16T15:17:31.000Z</time>
      </trkpt>
      <trkpt lat="45.56633" lon="2.81999">
        <ele>1307.1999511719</ele>
        <time>2013-08-16T15:18:00.000Z</time>
      </trkpt>
      <trkpt lat="45.56631" lon="2.81994">
        <ele>1305.5999755859</ele>
        <time>2013-08-16T15:18:20.000Z</time>
      </trkpt>
      <trkpt lat="45.56633" lon="2.81988">
        <ele>1301.8000488281</ele>
        <time>2013-08-16T15:18:44.000Z</time>
      </trkpt>
      <trkpt lat="45.56634" lon="2.81987">
        <ele>1301</ele>
        <time>2013-08-16T15:19:00.000Z</time>
      </trkpt>
      <trkpt lat="45.56631" lon="2.81991">
        <ele>1304.4000244141</ele>
        <time>2013-08-16T15:19:07.000Z</time>
      </trkpt>
      <trkpt lat="45.56626" lon="2.81993">
        <ele>1307.5999755859</ele>
        <time>2013-08-16T15:19:23.000Z</time>
      </trkpt>
      <trkpt lat="45.56619" lon="2.82002">
        <ele>1312.5999755859</ele>
        <time>2013-08-16T15:19:47.000Z</time>
      </trkpt>
      <trkpt lat="45.56619" lon="2.82">
        <ele>1312.1999511719</ele>
        <time>2013-08-16T15:20:00.000Z</time>
      </trkpt>
      <trkpt lat="45.56619" lon="2.81999">
        <ele>1312</ele>
        <time>2013-08-16T15:20:19.000Z</time>
      </trkpt>
      <trkpt lat="45.56618" lon="2.82">
        <ele>1312.1999511719</ele>
        <time>2013-08-16T15:20:31.000Z</time>
      </trkpt>
      <trkpt lat="45.56619" lon="2.81996">
        <ele>1311.1999511719</ele>
        <time>2013-08-16T15:20:37.000Z</time>
      </trkpt>
      <trkpt lat="45.56619" lon="2.81997">
        <ele>1311.4000244141</ele>
        <time>2013-08-16T15:20:41.000Z</time>
      </trkpt>
      <trkpt lat="45.56619" lon="2.81999">
        <ele>1312</ele>
        <time>2013-08-16T15:20:47.000Z</time>
      </trkpt>
      <trkpt lat="45.56617" lon="2.82005">
        <ele>1313.4000244141</ele>
        <time>2013-08-16T15:20:58.000Z</time>
      </trkpt>
      <trkpt lat="45.5662" lon="2.82004">
        <ele>1312.5999755859</ele>
        <time>2013-08-16T15:21:13.000Z</time>
      </trkpt>
      <trkpt lat="45.56619" lon="2.82007">
        <ele>1313.8000488281</ele>
        <time>2013-08-16T15:21:28.000Z</time>
      </trkpt>
      <trkpt lat="45.56618" lon="2.82008">
        <ele>1314.4000244141</ele>
        <time>2013-08-16T15:21:39.000Z</time>
      </trkpt>
      <trkpt lat="45.56618" lon="2.82007">
        <ele>1314</ele>
        <time>2013-08-16T15:21:45.000Z</time>
      </trkpt>
      <trkpt lat="45.56622" lon="2.82015">
        <ele>1316.1999511719</ele>
        <time>2013-08-16T15:21:52.000Z</time>
      </trkpt>
      <trkpt lat="45.56622" lon="2.82015">
        <ele>1316</ele>
        <time>2013-08-16T15:21:54.000Z</time>
      </trkpt>
      <trkpt lat="45.56625" lon="2.82015">
        <ele>1315.8000488281</ele>
        <time>2013-08-16T15:22:00.000Z</time>
      </trkpt>
      <trkpt lat="45.56626" lon="2.82014">
        <ele>1314.8000488281</ele>
        <time>2013-08-16T15:22:04.000Z</time>
      </trkpt>
      <trkpt lat="45.56629" lon="2.82011">
        <ele>1313.4000244141</ele>
        <time>2013-08-16T15:22:14.000Z</time>
      </trkpt>
      <trkpt lat="45.56632" lon="2.82011">
        <ele>1312.8000488281</ele>
        <time>2013-08-16T15:22:26.000Z</time>
      </trkpt>
      <trkpt lat="45.56633" lon="2.82007">
        <ele>1310.8000488281</ele>
        <time>2013-08-16T15:22:46.000Z</time>
      </trkpt>
      <trkpt lat="45.56637" lon="2.82007">
        <ele>1311.4000244141</ele>
        <time>2013-08-16T15:23:08.000Z</time>
      </trkpt>
      <trkpt lat="45.56637" lon="2.82005">
        <ele>1310.4000244141</ele>
        <time>2013-08-16T15:23:26.000Z</time>
      </trkpt>
      <trkpt lat="45.56635" lon="2.82011">
        <ele>1312.4000244141</ele>
        <time>2013-08-16T15:23:37.000Z</time>
      </trkpt>
      <trkpt lat="45.56633" lon="2.8201">
        <ele>1312</ele>
        <time>2013-08-16T15:23:49.000Z</time>
      </trkpt>
      <trkpt lat="45.56635" lon="2.82007">
        <ele>1310.8000488281</ele>
        <time>2013-08-16T15:24:00.000Z</time>
      </trkpt>
      <trkpt lat="45.56636" lon="2.82005">
        <ele>1310.1999511719</ele>
        <time>2013-08-16T15:24:17.000Z</time>
      </trkpt>
      <trkpt lat="45.56639" lon="2.82013">
        <ele>1313.8000488281</ele>
        <time>2013-08-16T15:24:38.000Z</time>
      </trkpt>
      <trkpt lat="45.56637" lon="2.82014">
        <ele>1313.8000488281</ele>
        <time>2013-08-16T15:24:47.000Z</time>
      </trkpt>
      <trkpt lat="45.56637" lon="2.82003">
        <ele>1309.4000244141</ele>
        <time>2013-08-16T15:25:04.000Z</time>
      </trkpt>
      <trkpt lat="45.56637" lon="2.81999">
        <ele>1307.4000244141</ele>
        <time>2013-08-16T15:25:22.000Z</time>
      </trkpt>
      <trkpt lat="45.56639" lon="2.82004">
        <ele>1310.4000244141</ele>
        <time>2013-08-16T15:25:35.000Z</time>
      </trkpt>
      <trkpt lat="45.56639" lon="2.82003">
        <ele>1310.1999511719</ele>
        <time>2013-08-16T15:25:40.000Z</time>
      </trkpt>
      <trkpt lat="45.56639" lon="2.81994">
        <ele>1305.1999511719</ele>
        <time>2013-08-16T15:25:48.000Z</time>
      </trkpt>
      <trkpt lat="45.56647" lon="2.81991">
        <ele>1306</ele>
        <time>2013-08-16T15:25:57.000Z</time>
      </trkpt>
      <trkpt lat="45.56651" lon="2.81987">
        <ele>1305</ele>
        <time>2013-08-16T15:26:02.000Z</time>
      </trkpt>
      <trkpt lat="45.56648" lon="2.81988">
        <ele>1305</ele>
        <time>2013-08-16T15:26:11.000Z</time>
      </trkpt>
      <trkpt lat="45.56648" lon="2.81988">
        <ele>1305</ele>
        <time>2013-08-16T15:26:12.000Z</time>
      </trkpt>
      <trkpt lat="45.56647" lon="2.81992">
        <ele>1306.5999755859</ele>
        <time>2013-08-16T15:26:16.000Z</time>
      </trkpt>
      <trkpt lat="45.56646" lon="2.82005">
        <ele>1313</ele>
        <time>2013-08-16T15:26:27.000Z</time>
      </trkpt>
      <trkpt lat="45.56647" lon="2.82006">
        <ele>1314</ele>
        <time>2013-08-16T15:26:34.000Z</time>
      </trkpt>
      <trkpt lat="45.56647" lon="2.82011">
        <ele>1315.4000244141</ele>
        <time>2013-08-16T15:26:44.000Z</time>
      </trkpt>
      <trkpt lat="45.56643" lon="2.81974">
        <ele>1296</ele>
        <time>2013-08-16T15:26:59.000Z</time>
      </trkpt>
      <trkpt lat="45.56641" lon="2.8197">
        <ele>1293.4000244141</ele>
        <time>2013-08-16T15:27:11.000Z</time>
      </trkpt>
      <trkpt lat="45.56642" lon="2.8197">
        <ele>1294</ele>
        <time>2013-08-16T15:27:14.000Z</time>
      </trkpt>
      <trkpt lat="45.56638" lon="2.81967">
        <ele>1291</ele>
        <time>2013-08-16T15:27:25.000Z</time>
      </trkpt>
      <trkpt lat="45.56635" lon="2.81961">
        <ele>1287.1999511719</ele>
        <time>2013-08-16T15:27:42.000Z</time>
      </trkpt>
      <trkpt lat="45.56639" lon="2.81957">
        <ele>1286.5999755859</ele>
        <time>2013-08-16T15:27:56.000Z</time>
      </trkpt>
      <trkpt lat="45.56641" lon="2.81961">
        <ele>1289</ele>
        <time>2013-08-16T15:28:14.000Z</time>
      </trkpt>
      <trkpt lat="45.56644" lon="2.81968">
        <ele>1293</ele>
        <time>2013-08-16T15:28:27.000Z</time>
      </trkpt>
      <trkpt lat="45.56641" lon="2.81964">
        <ele>1290.5999755859</ele>
        <time>2013-08-16T15:28:40.000Z</time>
      </trkpt>
      <trkpt lat="45.56642" lon="2.8197">
        <ele>1293.5999755859</ele>
        <time>2013-08-16T15:28:54.000Z</time>
      </trkpt>
      <trkpt lat="45.56642" lon="2.81964">
        <ele>1290.5999755859</ele>
        <time>2013-08-16T15:29:10.000Z</time>
      </trkpt>
      <trkpt lat="45.56647" lon="2.81967">
        <ele>1293.5999755859</ele>
        <time>2013-08-16T15:29:27.000Z</time>
      </trkpt>
      <trkpt lat="45.56645" lon="2.8197">
        <ele>1294.5999755859</ele>
        <time>2013-08-16T15:29:40.000Z</time>
      </trkpt>
      <trkpt lat="45.56642" lon="2.81972">
        <ele>1294.8000488281</ele>
        <time>2013-08-16T15:29:52.000Z</time>
      </trkpt>
      <trkpt lat="45.56645" lon="2.81976">
        <ele>1298</ele>
        <time>2013-08-16T15:30:20.000Z</time>
      </trkpt>
      <trkpt lat="45.56646" lon="2.81978">
        <ele>1298.8000488281</ele>
        <time>2013-08-16T15:30:46.000Z</time>
      </trkpt>
      <trkpt lat="45.56646" lon="2.81978">
        <ele>1298.8000488281</ele>
        <time>2013-08-16T15:30:48.000Z</time>
      </trkpt>
      <trkpt lat="45.56651" lon="2.8198">
        <ele>1301.8000488281</ele>
        <time>2013-08-16T15:30:58.000Z</time>
      </trkpt>
      <trkpt lat="45.56655" lon="2.81982">
        <ele>1303.8000488281</ele>
        <time>2013-08-16T15:31:11.000Z</time>
      </trkpt>
      <trkpt lat="45.56654" lon="2.8199">
        <ele>1307.5999755859</ele>
        <time>2013-08-16T15:31:23.000Z</time>
      </trkpt>
      <trkpt lat="45.5665" lon="2.81999">
        <ele>1311</ele>
        <time>2013-08-16T15:31:38.000Z</time>
      </trkpt>
      <trkpt lat="45.56645" lon="2.82007">
        <ele>1313.4000244141</ele>
        <time>2013-08-16T15:31:50.000Z</time>
      </trkpt>
      <trkpt lat="45.56642" lon="2.82013">
        <ele>1314.5999755859</ele>
        <time>2013-08-16T15:32:05.000Z</time>
      </trkpt>
      <trkpt lat="45.56638" lon="2.82021">
        <ele>1316.8000488281</ele>
        <time>2013-08-16T15:32:14.000Z</time>
      </trkpt>
      <trkpt lat="45.56637" lon="2.82023">
        <ele>1317.1999511719</ele>
        <time>2013-08-16T15:32:16.000Z</time>
      </trkpt>
      <trkpt lat="45.56631" lon="2.82026">
        <ele>1318.1999511719</ele>
        <time>2013-08-16T15:32:27.000Z</time>
      </trkpt>
      <trkpt lat="45.56631" lon="2.82024">
        <ele>1317.8000488281</ele>
        <time>2013-08-16T15:32:40.000Z</time>
      </trkpt>
      <trkpt lat="45.56628" lon="2.82026">
        <ele>1319</ele>
        <time>2013-08-16T15:32:50.000Z</time>
      </trkpt>
      <trkpt lat="45.56627" lon="2.82025">
        <ele>1319</ele>
        <time>2013-08-16T15:33:15.000Z</time>
      </trkpt>
      <trkpt lat="45.56627" lon="2.82025">
        <ele>1318.8000488281</ele>
        <time>2013-08-16T15:33:34.000Z</time>
      </trkpt>
      <trkpt lat="45.56627" lon="2.82024">
        <ele>1318.5999755859</ele>
        <time>2013-08-16T15:34:02.000Z</time>
      </trkpt>
      <trkpt lat="45.56627" lon="2.8202">
        <ele>1317.1999511719</ele>
        <time>2013-08-16T15:34:08.000Z</time>
      </trkpt>
      <trkpt lat="45.56622" lon="2.82002">
        <ele>1311.8000488281</ele>
        <time>2013-08-16T15:34:20.000Z</time>
      </trkpt>
      <trkpt lat="45.56622" lon="2.82">
        <ele>1311.4000244141</ele>
        <time>2013-08-16T15:34:41.000Z</time>
      </trkpt>
      <trkpt lat="45.5662" lon="2.82003">
        <ele>1312.4000244141</ele>
        <time>2013-08-16T15:35:12.000Z</time>
      </trkpt>
      <trkpt lat="45.5662" lon="2.82004">
        <ele>1312.8000488281</ele>
        <time>2013-08-16T15:35:31.000Z</time>
      </trkpt>
      <trkpt lat="45.5662" lon="2.82004">
        <ele>1312.5999755859</ele>
        <time>2013-08-16T15:35:36.000Z</time>
      </trkpt>
      <trkpt lat="45.56624" lon="2.82006">
        <ele>1312.4000244141</ele>
        <time>2013-08-16T15:35:50.000Z</time>
      </trkpt>
      <trkpt lat="45.56625" lon="2.8201">
        <ele>1313.5999755859</ele>
        <time>2013-08-16T15:36:06.000Z</time>
      </trkpt>
      <trkpt lat="45.56625" lon="2.82013">
        <ele>1315</ele>
        <time>2013-08-16T15:36:23.000Z</time>
      </trkpt>
      <trkpt lat="45.56627" lon="2.82016">
        <ele>1315.4000244141</ele>
        <time>2013-08-16T15:36:46.000Z</time>
      </trkpt>
      <trkpt lat="45.56628" lon="2.82015">
        <ele>1314.8000488281</ele>
        <time>2013-08-16T15:37:04.000Z</time>
      </trkpt>
      <trkpt lat="45.56627" lon="2.82015">
        <ele>1315</ele>
        <time>2013-08-16T15:37:23.000Z</time>
      </trkpt>
      <trkpt lat="45.56627" lon="2.82015">
        <ele>1315.1999511719</ele>
        <time>2013-08-16T15:37:45.000Z</time>
      </trkpt>
      <trkpt lat="45.56628" lon="2.82018">
        <ele>1316</ele>
        <time>2013-08-16T15:38:16.000Z</time>
      </trkpt>
      <trkpt lat="45.56629" lon="2.82021">
        <ele>1317</ele>
        <time>2013-08-16T15:38:28.000Z</time>
      </trkpt>
      <trkpt lat="45.56631" lon="2.82021">
        <ele>1316.5999755859</ele>
        <time>2013-08-16T15:38:41.000Z</time>
      </trkpt>
      <trkpt lat="45.5663" lon="2.82021">
        <ele>1316.5999755859</ele>
        <time>2013-08-16T15:38:48.000Z</time>
      </trkpt>
      <trkpt lat="45.56626" lon="2.82019">
        <ele>1316.8000488281</ele>
        <time>2013-08-16T15:39:00.000Z</time>
      </trkpt>
      <trkpt lat="45.5663" lon="2.82019">
        <ele>1316.1999511719</ele>
        <time>2013-08-16T15:39:10.000Z</time>
      </trkpt>
      <trkpt lat="45.56631" lon="2.82019">
        <ele>1315.8000488281</ele>
        <time>2013-08-16T15:39:23.000Z</time>
      </trkpt>
      <trkpt lat="45.56636" lon="2.82019">
        <ele>1315.4000244141</ele>
        <time>2013-08-16T15:39:34.000Z</time>
      </trkpt>
      <trkpt lat="45.56638" lon="2.82016">
        <ele>1314.8000488281</ele>
        <time>2013-08-16T15:39:44.000Z</time>
      </trkpt>
      <trkpt lat="45.56641" lon="2.82013">
        <ele>1314.4000244141</ele>
        <time>2013-08-16T15:39:54.000Z</time>
      </trkpt>
      <trkpt lat="45.56642" lon="2.82016">
        <ele>1315.5999755859</ele>
        <time>2013-08-16T15:40:09.000Z</time>
      </trkpt>
      <trkpt lat="45.56642" lon="2.82022">
        <ele>1317.8000488281</ele>
        <time>2013-08-16T15:40:24.000Z</time>
      </trkpt>
      <trkpt lat="45.56644" lon="2.82024">
        <ele>1319.1999511719</ele>
        <time>2013-08-16T15:40:38.000Z</time>
      </trkpt>
      <trkpt lat="45.56648" lon="2.8203">
        <ele>1322.1999511719</ele>
        <time>2013-08-16T15:41:07.000Z</time>
      </trkpt>
      <trkpt lat="45.56647" lon="2.8203">
        <ele>1322</ele>
        <time>2013-08-16T15:41:31.000Z</time>
      </trkpt>
      <trkpt lat="45.56645" lon="2.82027">
        <ele>1320.4000244141</ele>
        <time>2013-08-16T15:41:49.000Z</time>
      </trkpt>
      <trkpt lat="45.56643" lon="2.82028">
        <ele>1320.1999511719</ele>
        <time>2013-08-16T15:42:00.000Z</time>
      </trkpt>
      <trkpt lat="45.56642" lon="2.82026">
        <ele>1319.1999511719</ele>
        <time>2013-08-16T15:42:03.000Z</time>
      </trkpt>
      <trkpt lat="45.56642" lon="2.82019">
        <ele>1316.5999755859</ele>
        <time>2013-08-16T15:42:13.000Z</time>
      </trkpt>
      <trkpt lat="45.5664" lon="2.82017">
        <ele>1315.8000488281</ele>
        <time>2013-08-16T15:42:28.000Z</time>
      </trkpt>
      <trkpt lat="45.56642" lon="2.82012">
        <ele>1314.4000244141</ele>
        <time>2013-08-16T15:42:40.000Z</time>
      </trkpt>
      <trkpt lat="45.56644" lon="2.82006">
        <ele>1312.8000488281</ele>
        <time>2013-08-16T15:42:51.000Z</time>
      </trkpt>
      <trkpt lat="45.56642" lon="2.81991">
        <ele>1304.5999755859</ele>
        <time>2013-08-16T15:43:10.000Z</time>
      </trkpt>
      <trkpt lat="45.56642" lon="2.8199">
        <ele>1304.4000244141</ele>
        <time>2013-08-16T15:43:12.000Z</time>
      </trkpt>
      <trkpt lat="45.56628" lon="2.81983">
        <ele>1301.5999755859</ele>
        <time>2013-08-16T15:43:19.000Z</time>
      </trkpt>
      <trkpt lat="45.56641" lon="2.81979">
        <ele>1298</ele>
        <time>2013-08-16T15:43:29.000Z</time>
      </trkpt>
      <trkpt lat="45.56642" lon="2.81955">
        <ele>1286</ele>
        <time>2013-08-16T15:43:48.000Z</time>
      </trkpt>
      <trkpt lat="45.56641" lon="2.81954">
        <ele>1285</ele>
        <time>2013-08-16T15:44:07.000Z</time>
      </trkpt>
      <trkpt lat="45.56642" lon="2.81955">
        <ele>1286.4000244141</ele>
        <time>2013-08-16T15:44:17.000Z</time>
      </trkpt>
      <trkpt lat="45.56646" lon="2.81954">
        <ele>1286.8000488281</ele>
        <time>2013-08-16T15:44:28.000Z</time>
      </trkpt>
      <trkpt lat="45.56648" lon="2.81957">
        <ele>1288.5999755859</ele>
        <time>2013-08-16T15:44:40.000Z</time>
      </trkpt>
      <trkpt lat="45.56647" lon="2.81962">
        <ele>1291.1999511719</ele>
        <time>2013-08-16T15:44:54.000Z</time>
      </trkpt>
      <trkpt lat="45.56646" lon="2.81956">
        <ele>1287.8000488281</ele>
        <time>2013-08-16T15:45:09.000Z</time>
      </trkpt>
      <trkpt lat="45.56645" lon="2.81942">
        <ele>1280.1999511719</ele>
        <time>2013-08-16T15:45:26.000Z</time>
      </trkpt>
      <trkpt lat="45.56649" lon="2.81946">
        <ele>1283.4000244141</ele>
        <time>2013-08-16T15:45:40.000Z</time>
      </trkpt>
      <trkpt lat="45.56653" lon="2.81948">
        <ele>1285.4000244141</ele>
        <time>2013-08-16T15:45:51.000Z</time>
      </trkpt>
      <trkpt lat="45.56662" lon="2.8195">
        <ele>1289</ele>
        <time>2013-08-16T15:46:04.000Z</time>
      </trkpt>
      <trkpt lat="45.56663" lon="2.81946">
        <ele>1287</ele>
        <time>2013-08-16T15:46:32.000Z</time>
      </trkpt>
      <trkpt lat="45.56682" lon="2.81956">
        <ele>1296.4000244141</ele>
        <time>2013-08-16T15:46:50.000Z</time>
      </trkpt>
      <trkpt lat="45.56676" lon="2.81962">
        <ele>1298.8000488281</ele>
        <time>2013-08-16T15:47:03.000Z</time>
      </trkpt>
      <trkpt lat="45.56677" lon="2.81965">
        <ele>1301</ele>
        <time>2013-08-16T15:47:13.000Z</time>
      </trkpt>
      <trkpt lat="45.56676" lon="2.81963">
        <ele>1299.8000488281</ele>
        <time>2013-08-16T15:47:20.000Z</time>
      </trkpt>
      <trkpt lat="45.56678" lon="2.8196">
        <ele>1298</ele>
        <time>2013-08-16T15:47:30.000Z</time>
      </trkpt>
      <trkpt lat="45.56688" lon="2.81952">
        <ele>1295</ele>
        <time>2013-08-16T15:47:42.000Z</time>
      </trkpt>
      <trkpt lat="45.56697" lon="2.81944">
        <ele>1291</ele>
        <time>2013-08-16T15:47:56.000Z</time>
      </trkpt>
      <trkpt lat="45.56704" lon="2.8194">
        <ele>1289.8000488281</ele>
        <time>2013-08-16T15:48:08.000Z</time>
      </trkpt>
      <trkpt lat="45.56716" lon="2.81931">
        <ele>1286.4000244141</ele>
        <time>2013-08-16T15:48:19.000Z</time>
      </trkpt>
      <trkpt lat="45.56723" lon="2.81922">
        <ele>1282.4000244141</ele>
        <time>2013-08-16T15:48:31.000Z</time>
      </trkpt>
      <trkpt lat="45.56734" lon="2.81918">
        <ele>1283.1999511719</ele>
        <time>2013-08-16T15:48:45.000Z</time>
      </trkpt>
      <trkpt lat="45.56738" lon="2.81911">
        <ele>1280.1999511719</ele>
        <time>2013-08-16T15:48:58.000Z</time>
      </trkpt>
      <trkpt lat="45.56742" lon="2.81901">
        <ele>1276.8000488281</ele>
        <time>2013-08-16T15:49:09.000Z</time>
      </trkpt>
      <trkpt lat="45.56745" lon="2.81892">
        <ele>1272.5999755859</ele>
        <time>2013-08-16T15:49:20.000Z</time>
      </trkpt>
      <trkpt lat="45.56748" lon="2.81883">
        <ele>1269.1999511719</ele>
        <time>2013-08-16T15:49:35.000Z</time>
      </trkpt>
      <trkpt lat="45.56762" lon="2.81869">
        <ele>1266.4000244141</ele>
        <time>2013-08-16T15:49:48.000Z</time>
      </trkpt>
      <trkpt lat="45.56765" lon="2.81848">
        <ele>1258.8000488281</ele>
        <time>2013-08-16T15:49:59.000Z</time>
      </trkpt>
      <trkpt lat="45.56763" lon="2.81841">
        <ele>1255.4000244141</ele>
        <time>2013-08-16T15:50:08.000Z</time>
      </trkpt>
      <trkpt lat="45.56757" lon="2.81834">
        <ele>1250</ele>
        <time>2013-08-16T15:50:18.000Z</time>
      </trkpt>
      <trkpt lat="45.56745" lon="2.81833">
        <ele>1245.4000244141</ele>
        <time>2013-08-16T15:50:32.000Z</time>
      </trkpt>
      <trkpt lat="45.56741" lon="2.81831">
        <ele>1243.1999511719</ele>
        <time>2013-08-16T15:50:40.000Z</time>
      </trkpt>
      <trkpt lat="45.56739" lon="2.81832">
        <ele>1243</ele>
        <time>2013-08-16T15:50:43.000Z</time>
      </trkpt>
      <trkpt lat="45.56732" lon="2.81834">
        <ele>1241.5999755859</ele>
        <time>2013-08-16T15:50:52.000Z</time>
      </trkpt>
      <trkpt lat="45.56728" lon="2.81837">
        <ele>1241.4000244141</ele>
        <time>2013-08-16T15:51:02.000Z</time>
      </trkpt>
      <trkpt lat="45.56725" lon="2.81839">
        <ele>1241.5999755859</ele>
        <time>2013-08-16T15:51:11.000Z</time>
      </trkpt>
      <trkpt lat="45.56707" lon="2.81839">
        <ele>1240.1999511719</ele>
        <time>2013-08-16T15:51:23.000Z</time>
      </trkpt>
      <trkpt lat="45.56697" lon="2.8184">
        <ele>1242</ele>
        <time>2013-08-16T15:51:36.000Z</time>
      </trkpt>
      <trkpt lat="45.56697" lon="2.81838">
        <ele>1241.1999511719</ele>
        <time>2013-08-16T15:51:48.000Z</time>
      </trkpt>
      <trkpt lat="45.56701" lon="2.81841">
        <ele>1241.8000488281</ele>
        <time>2013-08-16T15:51:56.000Z</time>
      </trkpt>
      <trkpt lat="45.56701" lon="2.8184">
        <ele>1241.5999755859</ele>
        <time>2013-08-16T15:52:10.000Z</time>
      </trkpt>
      <trkpt lat="45.56703" lon="2.81817">
        <ele>1235.1999511719</ele>
        <time>2013-08-16T15:52:22.000Z</time>
      </trkpt>
      <trkpt lat="45.56695" lon="2.81832">
        <ele>1240.4000244141</ele>
        <time>2013-08-16T15:52:34.000Z</time>
      </trkpt>
      <trkpt lat="45.56704" lon="2.81841">
        <ele>1241.8000488281</ele>
        <time>2013-08-16T15:52:46.000Z</time>
      </trkpt>
      <trkpt lat="45.56711" lon="2.81837">
        <ele>1239.4000244141</ele>
        <time>2013-08-16T15:52:57.000Z</time>
      </trkpt>
      <trkpt lat="45.56711" lon="2.81823">
        <ele>1234.1999511719</ele>
        <time>2013-08-16T15:53:03.000Z</time>
      </trkpt>
      <trkpt lat="45.5671" lon="2.81816">
        <ele>1232</ele>
        <time>2013-08-16T15:53:14.000Z</time>
      </trkpt>
      <trkpt lat="45.5671" lon="2.81815">
        <ele>1231.4000244141</ele>
        <time>2013-08-16T15:53:21.000Z</time>
      </trkpt>
      <trkpt lat="45.56701" lon="2.81812">
        <ele>1233.4000244141</ele>
        <time>2013-08-16T15:53:34.000Z</time>
      </trkpt>
      <trkpt lat="45.56699" lon="2.81817">
        <ele>1237</ele>
        <time>2013-08-16T15:53:44.000Z</time>
      </trkpt>
      <trkpt lat="45.567" lon="2.81833">
        <ele>1240</ele>
        <time>2013-08-16T15:53:56.000Z</time>
      </trkpt>
      <trkpt lat="45.56701" lon="2.81832">
        <ele>1239.8000488281</ele>
        <time>2013-08-16T15:54:08.000Z</time>
      </trkpt>
      <trkpt lat="45.56704" lon="2.81826">
        <ele>1238.5999755859</ele>
        <time>2013-08-16T15:54:21.000Z</time>
      </trkpt>
      <trkpt lat="45.56707" lon="2.81821">
        <ele>1235</ele>
        <time>2013-08-16T15:54:33.000Z</time>
      </trkpt>
      <trkpt lat="45.56716" lon="2.81817">
        <ele>1229.5999755859</ele>
        <time>2013-08-16T15:54:45.000Z</time>
      </trkpt>
      <trkpt lat="45.56718" lon="2.81807">
        <ele>1224.4000244141</ele>
        <time>2013-08-16T15:54:59.000Z</time>
      </trkpt>
      <trkpt lat="45.56727" lon="2.81791">
        <ele>1219.8000488281</ele>
        <time>2013-08-16T15:55:12.000Z</time>
      </trkpt>
      <trkpt lat="45.56735" lon="2.81784">
        <ele>1219</ele>
        <time>2013-08-16T15:55:24.000Z</time>
      </trkpt>
      <trkpt lat="45.56743" lon="2.81771">
        <ele>1216</ele>
        <time>2013-08-16T15:55:37.000Z</time>
      </trkpt>
      <trkpt lat="45.56748" lon="2.81764">
        <ele>1214.4000244141</ele>
        <time>2013-08-16T15:55:45.000Z</time>
      </trkpt>
      <trkpt lat="45.56754" lon="2.81756">
        <ele>1212.8000488281</ele>
        <time>2013-08-16T15:56:01.000Z</time>
      </trkpt>
      <trkpt lat="45.56757" lon="2.81752">
        <ele>1212.5999755859</ele>
        <time>2013-08-16T15:56:12.000Z</time>
      </trkpt>
      <trkpt lat="45.56776" lon="2.81734">
        <ele>1213.8000488281</ele>
        <time>2013-08-16T15:56:27.000Z</time>
      </trkpt>
      <trkpt lat="45.56783" lon="2.81733">
        <ele>1215.4000244141</ele>
        <time>2013-08-16T15:56:38.000Z</time>
      </trkpt>
      <trkpt lat="45.56787" lon="2.81725">
        <ele>1211.8000488281</ele>
        <time>2013-08-16T15:56:50.000Z</time>
      </trkpt>
      <trkpt lat="45.56791" lon="2.81716">
        <ele>1208.1999511719</ele>
        <time>2013-08-16T15:57:00.000Z</time>
      </trkpt>
      <trkpt lat="45.56797" lon="2.81703">
        <ele>1203.1999511719</ele>
        <time>2013-08-16T15:57:13.000Z</time>
      </trkpt>
      <trkpt lat="45.56798" lon="2.81694">
        <ele>1199.1999511719</ele>
        <time>2013-08-16T15:57:24.000Z</time>
      </trkpt>
      <trkpt lat="45.56805" lon="2.81687">
        <ele>1197.1999511719</ele>
        <time>2013-08-16T15:57:35.000Z</time>
      </trkpt>
      <trkpt lat="45.56813" lon="2.81677">
        <ele>1193.8000488281</ele>
        <time>2013-08-16T15:57:45.000Z</time>
      </trkpt>
      <trkpt lat="45.56823" lon="2.81669">
        <ele>1190.8000488281</ele>
        <time>2013-08-16T15:57:57.000Z</time>
      </trkpt>
      <trkpt lat="45.5683" lon="2.81658">
        <ele>1186.5999755859</ele>
        <time>2013-08-16T15:58:08.000Z</time>
      </trkpt>
      <trkpt lat="45.56841" lon="2.81648">
        <ele>1182.8000488281</ele>
        <time>2013-08-16T15:58:21.000Z</time>
      </trkpt>
      <trkpt lat="45.5685" lon="2.81635">
        <ele>1177.4000244141</ele>
        <time>2013-08-16T15:58:33.000Z</time>
      </trkpt>
      <trkpt lat="45.56855" lon="2.81619">
        <ele>1171.4000244141</ele>
        <time>2013-08-16T15:58:46.000Z</time>
      </trkpt>
      <trkpt lat="45.56864" lon="2.81606">
        <ele>1167.1999511719</ele>
        <time>2013-08-16T15:58:59.000Z</time>
      </trkpt>
      <trkpt lat="45.56867" lon="2.81601">
        <ele>1165.1999511719</ele>
        <time>2013-08-16T15:59:15.000Z</time>
      </trkpt>
      <trkpt lat="45.56869" lon="2.81602">
        <ele>1166</ele>
        <time>2013-08-16T15:59:33.000Z</time>
      </trkpt>
      <trkpt lat="45.56872" lon="2.81593">
        <ele>1162.4000244141</ele>
        <time>2013-08-16T15:59:53.000Z</time>
      </trkpt>
      <trkpt lat="45.56872" lon="2.81587">
        <ele>1159.8000488281</ele>
        <time>2013-08-16T16:00:06.000Z</time>
      </trkpt>
      <trkpt lat="45.56873" lon="2.81582">
        <ele>1158.5999755859</ele>
        <time>2013-08-16T16:00:37.000Z</time>
      </trkpt>
      <trkpt lat="45.56873" lon="2.81577">
        <ele>1156.5999755859</ele>
        <time>2013-08-16T16:00:50.000Z</time>
      </trkpt>
      <trkpt lat="45.56873" lon="2.81572">
        <ele>1154.4000244141</ele>
        <time>2013-08-16T16:01:01.000Z</time>
      </trkpt>
      <trkpt lat="45.56875" lon="2.81571">
        <ele>1154</ele>
        <time>2013-08-16T16:01:06.000Z</time>
      </trkpt>
      <trkpt lat="45.56886" lon="2.81566">
        <ele>1153.5999755859</ele>
        <time>2013-08-16T16:01:17.000Z</time>
      </trkpt>
      <trkpt lat="45.56899" lon="2.81563">
        <ele>1154.8000488281</ele>
        <time>2013-08-16T16:01:29.000Z</time>
      </trkpt>
      <trkpt lat="45.56904" lon="2.81562">
        <ele>1155.8000488281</ele>
        <time>2013-08-16T16:01:40.000Z</time>
      </trkpt>
      <trkpt lat="45.56911" lon="2.81558">
        <ele>1155.4000244141</ele>
        <time>2013-08-16T16:01:51.000Z</time>
      </trkpt>
      <trkpt lat="45.56922" lon="2.81547">
        <ele>1153.1999511719</ele>
        <time>2013-08-16T16:02:02.000Z</time>
      </trkpt>
      <trkpt lat="45.56933" lon="2.81542">
        <ele>1151.8000488281</ele>
        <time>2013-08-16T16:02:15.000Z</time>
      </trkpt>
      <trkpt lat="45.56945" lon="2.81538">
        <ele>1151.1999511719</ele>
        <time>2013-08-16T16:02:28.000Z</time>
      </trkpt>
      <trkpt lat="45.56955" lon="2.81535">
        <ele>1150.1999511719</ele>
        <time>2013-08-16T16:02:41.000Z</time>
      </trkpt>
      <trkpt lat="45.56963" lon="2.81535">
        <ele>1151</ele>
        <time>2013-08-16T16:02:54.000Z</time>
      </trkpt>
      <trkpt lat="45.56969" lon="2.81531">
        <ele>1149.1999511719</ele>
        <time>2013-08-16T16:03:07.000Z</time>
      </trkpt>
      <trkpt lat="45.56978" lon="2.81527">
        <ele>1148.8000488281</ele>
        <time>2013-08-16T16:03:18.000Z</time>
      </trkpt>
      <trkpt lat="45.56984" lon="2.81522">
        <ele>1147.4000244141</ele>
        <time>2013-08-16T16:03:30.000Z</time>
      </trkpt>
      <trkpt lat="45.56989" lon="2.8152">
        <ele>1147.1999511719</ele>
        <time>2013-08-16T16:03:40.000Z</time>
      </trkpt>
      <trkpt lat="45.56992" lon="2.81515">
        <ele>1144.5999755859</ele>
        <time>2013-08-16T16:03:53.000Z</time>
      </trkpt>
      <trkpt lat="45.56992" lon="2.81513">
        <ele>1143.5999755859</ele>
        <time>2013-08-16T16:04:08.000Z</time>
      </trkpt>
      <trkpt lat="45.57004" lon="2.81511">
        <ele>1144.1999511719</ele>
        <time>2013-08-16T16:04:20.000Z</time>
      </trkpt>
      <trkpt lat="45.56994" lon="2.81512">
        <ele>1143</ele>
        <time>2013-08-16T16:04:35.000Z</time>
      </trkpt>
      <trkpt lat="45.56996" lon="2.81508">
        <ele>1141.4000244141</ele>
        <time>2013-08-16T16:04:47.000Z</time>
      </trkpt>
      <trkpt lat="45.56997" lon="2.81507">
        <ele>1140.5999755859</ele>
        <time>2013-08-16T16:05:18.000Z</time>
      </trkpt>
      <trkpt lat="45.57005" lon="2.81509">
        <ele>1142.8000488281</ele>
        <time>2013-08-16T16:05:43.000Z</time>
      </trkpt>
      <trkpt lat="45.57001" lon="2.81503">
        <ele>1139.1999511719</ele>
        <time>2013-08-16T16:05:56.000Z</time>
      </trkpt>
      <trkpt lat="45.56994" lon="2.81505">
        <ele>1138.8000488281</ele>
        <time>2013-08-16T16:06:06.000Z</time>
      </trkpt>
      <trkpt lat="45.56985" lon="2.81506">
        <ele>1138</ele>
        <time>2013-08-16T16:06:18.000Z</time>
      </trkpt>
      <trkpt lat="45.56974" lon="2.81501">
        <ele>1134.4000244141</ele>
        <time>2013-08-16T16:06:32.000Z</time>
      </trkpt>
      <trkpt lat="45.56965" lon="2.81506">
        <ele>1135.4000244141</ele>
        <time>2013-08-16T16:06:45.000Z</time>
      </trkpt>
      <trkpt lat="45.56951" lon="2.81498">
        <ele>1130.8000488281</ele>
        <time>2013-08-16T16:07:00.000Z</time>
      </trkpt>
      <trkpt lat="45.56938" lon="2.81493">
        <ele>1127.8000488281</ele>
        <time>2013-08-16T16:07:14.000Z</time>
      </trkpt>
      <trkpt lat="45.56921" lon="2.81492">
        <ele>1126</ele>
        <time>2013-08-16T16:07:29.000Z</time>
      </trkpt>
      <trkpt lat="45.56909" lon="2.81492">
        <ele>1124.8000488281</ele>
        <time>2013-08-16T16:07:41.000Z</time>
      </trkpt>
      <trkpt lat="45.56909" lon="2.8149">
        <ele>1124.1999511719</ele>
        <time>2013-08-16T16:07:46.000Z</time>
      </trkpt>
      <trkpt lat="45.56918" lon="2.81486">
        <ele>1123.5999755859</ele>
        <time>2013-08-16T16:07:59.000Z</time>
      </trkpt>
      <trkpt lat="45.5692" lon="2.81485">
        <ele>1123.5999755859</ele>
        <time>2013-08-16T16:08:16.000Z</time>
      </trkpt>
      <trkpt lat="45.56924" lon="2.81486">
        <ele>1124</ele>
        <time>2013-08-16T16:08:28.000Z</time>
      </trkpt>
      <trkpt lat="45.56926" lon="2.81485">
        <ele>1123.8000488281</ele>
        <time>2013-08-16T16:08:56.000Z</time>
      </trkpt>
      <trkpt lat="45.56941" lon="2.81482">
        <ele>1124.1999511719</ele>
        <time>2013-08-16T16:09:11.000Z</time>
      </trkpt>
      <trkpt lat="45.56955" lon="2.81478">
        <ele>1123.8000488281</ele>
        <time>2013-08-16T16:09:26.000Z</time>
      </trkpt>
      <trkpt lat="45.5696" lon="2.81477">
        <ele>1123.5999755859</ele>
        <time>2013-08-16T16:09:41.000Z</time>
      </trkpt>
      <trkpt lat="45.56961" lon="2.81476">
        <ele>1123.4000244141</ele>
        <time>2013-08-16T16:10:03.000Z</time>
      </trkpt>
      <trkpt lat="45.56963" lon="2.81476">
        <ele>1123.4000244141</ele>
        <time>2013-08-16T16:10:22.000Z</time>
      </trkpt>
      <trkpt lat="45.56971" lon="2.81471">
        <ele>1122.1999511719</ele>
        <time>2013-08-16T16:10:34.000Z</time>
      </trkpt>
      <trkpt lat="45.56982" lon="2.81465">
        <ele>1121.8000488281</ele>
        <time>2013-08-16T16:10:47.000Z</time>
      </trkpt>
      <trkpt lat="45.56989" lon="2.81462">
        <ele>1121.5999755859</ele>
        <time>2013-08-16T16:10:56.000Z</time>
      </trkpt>
      <trkpt lat="45.56999" lon="2.81458">
        <ele>1122</ele>
        <time>2013-08-16T16:11:12.000Z</time>
      </trkpt>
      <trkpt lat="45.57005" lon="2.8146">
        <ele>1123.5999755859</ele>
        <time>2013-08-16T16:11:24.000Z</time>
      </trkpt>
      <trkpt lat="45.57012" lon="2.81461">
        <ele>1124.5999755859</ele>
        <time>2013-08-16T16:11:36.000Z</time>
      </trkpt>
      <trkpt lat="45.57021" lon="2.81453">
        <ele>1122.8000488281</ele>
        <time>2013-08-16T16:11:47.000Z</time>
      </trkpt>
      <trkpt lat="45.57028" lon="2.81448">
        <ele>1121.5999755859</ele>
        <time>2013-08-16T16:12:01.000Z</time>
      </trkpt>
      <trkpt lat="45.57041" lon="2.81438">
        <ele>1119.1999511719</ele>
        <time>2013-08-16T16:12:15.000Z</time>
      </trkpt>
      <trkpt lat="45.57053" lon="2.81429">
        <ele>1117.1999511719</ele>
        <time>2013-08-16T16:12:29.000Z</time>
      </trkpt>
      <trkpt lat="45.5707" lon="2.81416">
        <ele>1114.5999755859</ele>
        <time>2013-08-16T16:12:41.000Z</time>
      </trkpt>
      <trkpt lat="45.57085" lon="2.81409">
        <ele>1114.1999511719</ele>
        <time>2013-08-16T16:12:53.000Z</time>
      </trkpt>
      <trkpt lat="45.57101" lon="2.81401">
        <ele>1113.5999755859</ele>
        <time>2013-08-16T16:13:08.000Z</time>
      </trkpt>
      <trkpt lat="45.57111" lon="2.81395">
        <ele>1113.1999511719</ele>
        <time>2013-08-16T16:13:20.000Z</time>
      </trkpt>
      <trkpt lat="45.57119" lon="2.8139">
        <ele>1112</ele>
        <time>2013-08-16T16:13:31.000Z</time>
      </trkpt>
      <trkpt lat="45.57128" lon="2.81388">
        <ele>1112.4000244141</ele>
        <time>2013-08-16T16:13:42.000Z</time>
      </trkpt>
      <trkpt lat="45.5714" lon="2.81389">
        <ele>1114</ele>
        <time>2013-08-16T16:13:56.000Z</time>
      </trkpt>
      <trkpt lat="45.57157" lon="2.81388">
        <ele>1115.1999511719</ele>
        <time>2013-08-16T16:14:11.000Z</time>
      </trkpt>
      <trkpt lat="45.57178" lon="2.81384">
        <ele>1115.1999511719</ele>
        <time>2013-08-16T16:14:24.000Z</time>
      </trkpt>
      <trkpt lat="45.57185" lon="2.8138">
        <ele>1115.1999511719</ele>
        <time>2013-08-16T16:14:36.000Z</time>
      </trkpt>
      <trkpt lat="45.572" lon="2.81369">
        <ele>1114.1999511719</ele>
        <time>2013-08-16T16:14:47.000Z</time>
      </trkpt>
      <trkpt lat="45.57212" lon="2.81362">
        <ele>1114</ele>
        <time>2013-08-16T16:15:01.000Z</time>
      </trkpt>
      <trkpt lat="45.57225" lon="2.81357">
        <ele>1115.5999755859</ele>
        <time>2013-08-16T16:15:13.000Z</time>
      </trkpt>
      <trkpt lat="45.57233" lon="2.8135">
        <ele>1114.5999755859</ele>
        <time>2013-08-16T16:15:24.000Z</time>
      </trkpt>
      <trkpt lat="45.57255" lon="2.81337">
        <ele>1111.8000488281</ele>
        <time>2013-08-16T16:15:37.000Z</time>
      </trkpt>
      <trkpt lat="45.57268" lon="2.81322">
        <ele>1108.1999511719</ele>
        <time>2013-08-16T16:15:49.000Z</time>
      </trkpt>
      <trkpt lat="45.57279" lon="2.8132">
        <ele>1109</ele>
        <time>2013-08-16T16:16:03.000Z</time>
      </trkpt>
      <trkpt lat="45.57285" lon="2.81311">
        <ele>1106.8000488281</ele>
        <time>2013-08-16T16:16:15.000Z</time>
      </trkpt>
      <trkpt lat="45.57297" lon="2.81301">
        <ele>1105.4000244141</ele>
        <time>2013-08-16T16:16:26.000Z</time>
      </trkpt>
      <trkpt lat="45.57307" lon="2.81295">
        <ele>1105</ele>
        <time>2013-08-16T16:16:38.000Z</time>
      </trkpt>
      <trkpt lat="45.57317" lon="2.81288">
        <ele>1104.4000244141</ele>
        <time>2013-08-16T16:16:49.000Z</time>
      </trkpt>
      <trkpt lat="45.57329" lon="2.81281">
        <ele>1104.1999511719</ele>
        <time>2013-08-16T16:17:00.000Z</time>
      </trkpt>
      <trkpt lat="45.57339" lon="2.81275">
        <ele>1103.8000488281</ele>
        <time>2013-08-16T16:17:13.000Z</time>
      </trkpt>
      <trkpt lat="45.57343" lon="2.81271">
        <ele>1103.4000244141</ele>
        <time>2013-08-16T16:17:26.000Z</time>
      </trkpt>
      <trkpt lat="45.57351" lon="2.81263">
        <ele>1102</ele>
        <time>2013-08-16T16:17:38.000Z</time>
      </trkpt>
      <trkpt lat="45.57357" lon="2.81256">
        <ele>1101</ele>
        <time>2013-08-16T16:17:54.000Z</time>
      </trkpt>
      <trkpt lat="45.57357" lon="2.81259">
        <ele>1102</ele>
        <time>2013-08-16T16:18:07.000Z</time>
      </trkpt>
      <trkpt lat="45.57354" lon="2.81258">
        <ele>1101</ele>
        <time>2013-08-16T16:18:21.000Z</time>
      </trkpt>
      <trkpt lat="45.57349" lon="2.8125">
        <ele>1097.1999511719</ele>
        <time>2013-08-16T16:18:35.000Z</time>
      </trkpt>
      <trkpt lat="45.57348" lon="2.81244">
        <ele>1094.8000488281</ele>
        <time>2013-08-16T16:18:48.000Z</time>
      </trkpt>
      <trkpt lat="45.57351" lon="2.81238">
        <ele>1093</ele>
        <time>2013-08-16T16:19:05.000Z</time>
      </trkpt>
      <trkpt lat="45.57354" lon="2.81228">
        <ele>1090</ele>
        <time>2013-08-16T16:19:22.000Z</time>
      </trkpt>
      <trkpt lat="45.5736" lon="2.81213">
        <ele>1085.1999511719</ele>
        <time>2013-08-16T16:19:37.000Z</time>
      </trkpt>
      <trkpt lat="45.57358" lon="2.81211">
        <ele>1083.8000488281</ele>
        <time>2013-08-16T16:19:50.000Z</time>
      </trkpt>
      <trkpt lat="45.57355" lon="2.81207">
        <ele>1081.8000488281</ele>
        <time>2013-08-16T16:20:04.000Z</time>
      </trkpt>
      <trkpt lat="45.57352" lon="2.81199">
        <ele>1078.1999511719</ele>
        <time>2013-08-16T16:20:20.000Z</time>
      </trkpt>
      <trkpt lat="45.57356" lon="2.81182">
        <ele>1071.5999755859</ele>
        <time>2013-08-16T16:20:35.000Z</time>
      </trkpt>
      <trkpt lat="45.57358" lon="2.81178">
        <ele>1070.5999755859</ele>
        <time>2013-08-16T16:20:48.000Z</time>
      </trkpt>
      <trkpt lat="45.57356" lon="2.81167">
        <ele>1067.1999511719</ele>
        <time>2013-08-16T16:20:59.000Z</time>
      </trkpt>
      <trkpt lat="45.57349" lon="2.81161">
        <ele>1065.5999755859</ele>
        <time>2013-08-16T16:21:12.000Z</time>
      </trkpt>
      <trkpt lat="45.57347" lon="2.81169">
        <ele>1066</ele>
        <time>2013-08-16T16:21:24.000Z</time>
      </trkpt>
      <trkpt lat="45.57334" lon="2.81157">
        <ele>1063</ele>
        <time>2013-08-16T16:21:38.000Z</time>
      </trkpt>
      <trkpt lat="45.57336" lon="2.81152">
        <ele>1063</ele>
        <time>2013-08-16T16:21:52.000Z</time>
      </trkpt>
      <trkpt lat="45.57335" lon="2.81148">
        <ele>1062.5999755859</ele>
        <time>2013-08-16T16:22:05.000Z</time>
      </trkpt>
      <trkpt lat="45.57329" lon="2.81139">
        <ele>1061</ele>
        <time>2013-08-16T16:22:19.000Z</time>
      </trkpt>
      <trkpt lat="45.5733" lon="2.81134">
        <ele>1060.8000488281</ele>
        <time>2013-08-16T16:22:21.000Z</time>
      </trkpt>
      <trkpt lat="45.57318" lon="2.81135">
        <ele>1059</ele>
        <time>2013-08-16T16:22:32.000Z</time>
      </trkpt>
      <trkpt lat="45.57313" lon="2.8113">
        <ele>1057.8000488281</ele>
        <time>2013-08-16T16:22:47.000Z</time>
      </trkpt>
      <trkpt lat="45.57311" lon="2.81128">
        <ele>1057.4000244141</ele>
        <time>2013-08-16T16:23:07.000Z</time>
      </trkpt>
    </trkseg>
  </trk>
</gpx>